Beaver, Kentucky
Current Conditions -  °F | °C
As of 8:55 PM on Friday 24 Oct 2014 (Local Time) from KPBX Reporting Station
Clear Clear  
Wind Chill: 53°   Ceiling: Unl
Heat Index: 53°   Visibility: 10mi
Dew Point: 40°   Wind: 3mph
Humidity: 63%   Direction: 170°S
Pressure: 30.06"   Gusts: NA
Location:  37.4°N, 82.65°W
Report Text: KPBX 250055Z AUTO 17003KT 10SM CLR 11/05 A3006 RMK AO2 T01140045
Loading
Personal Weather Stations






























Interactive Weather Map
Tropical Storm Tracking
New forecast layout! Learn more

10-Day Weather Forecast

Advertisements
Track Severe Weather on mobile